createdAt,value
2018-09-06T00:01:22.491Z,56.30
2018-09-06T00:03:50.001Z,56.20
2018-09-06T00:06:17.513Z,56.10
2018-09-06T00:08:45.336Z,55.80
2018-09-06T00:11:12.883Z,55.80
2018-09-06T00:13:40.436Z,55.40
2018-09-06T00:16:08.208Z,56.10
2018-09-06T00:18:35.732Z,56.20
2018-09-06T00:21:03.268Z,56.20
2018-09-06T00:23:30.996Z,56.10
2018-09-06T00:25:58.632Z,56.10
2018-09-06T00:28:26.200Z,54.70
2018-09-06T00:30:53.854Z,56.20
2018-09-06T00:33:21.416Z,56.30
2018-09-06T00:35:49.000Z,56.30
2018-09-06T00:38:16.592Z,56.30
2018-09-06T00:40:44.262Z,56.20
2018-09-06T00:43:11.829Z,56.20
2018-09-06T00:45:39.340Z,56.20
2018-09-06T00:48:06.906Z,56.00
2018-09-06T00:50:36.302Z,56.00
2018-09-06T00:53:04.010Z,55.90
2018-09-06T00:55:31.803Z,56.70
2018-09-06T00:57:59.365Z,56.60
2018-09-06T01:00:27.100Z,56.50
2018-09-06T01:02:54.768Z,56.30
2018-09-06T01:05:22.597Z,56.30
2018-09-06T01:07:50.206Z,56.30
2018-09-06T01:10:17.771Z,56.20
2018-09-06T01:12:45.284Z,55.80
2018-09-06T01:15:12.783Z,56.00
2018-09-06T01:17:40.351Z,56.40
2018-09-06T01:20:08.079Z,56.20
2018-09-06T01:22:35.735Z,56.00
2018-09-06T01:25:03.368Z,56.90
2018-09-06T01:27:30.873Z,55.60
2018-09-06T01:29:58.443Z,56.30
2018-09-06T01:32:26.079Z,58.40
2018-09-06T01:34:53.658Z,59.60
2018-09-06T01:37:21.155Z,58.50
2018-09-06T01:39:48.637Z,59.90
2018-09-06T01:42:16.207Z,59.00
2018-09-06T01:44:43.740Z,58.30
2018-09-06T01:47:11.368Z,57.70
2018-09-06T01:49:39.004Z,57.20
2018-09-06T01:52:06.504Z,55.70
2018-09-06T01:54:33.991Z,56.70
2018-09-06T01:57:01.528Z,58.40
2018-09-06T01:59:34.600Z,58.50
2018-09-06T02:02:02.218Z,57.70
2018-09-06T02:04:29.763Z,57.60
2018-09-06T02:06:57.235Z,57.90
2018-09-06T02:09:24.891Z,57.60
2018-09-06T02:11:52.394Z,57.40
2018-09-06T02:14:19.880Z,57.30
2018-09-06T02:16:47.480Z,57.20
2018-09-06T02:19:15.012Z,57.00
2018-09-06T02:21:42.656Z,56.70
2018-09-06T02:24:10.155Z,56.10
2018-09-06T02:26:37.639Z,57.00
2018-09-06T02:29:05.181Z,57.20
2018-09-06T02:31:32.825Z,57.00
2018-09-06T02:34:00.324Z,57.40
2018-09-06T02:36:28.346Z,56.60
2018-09-06T02:38:55.995Z,57.00
2018-09-06T02:41:23.600Z,55.80
2018-09-06T02:43:51.175Z,58.40
2018-09-06T02:46:18.836Z,58.50
2018-09-06T02:48:46.320Z,58.30
2018-09-06T02:51:18.145Z,57.60
2018-09-06T02:53:45.845Z,56.90
2018-09-06T02:56:14.274Z,56.20
2018-09-06T02:58:41.916Z,58.30
2018-09-06T03:01:09.701Z,58.70
2018-09-06T03:03:37.412Z,58.50
2018-09-06T03:06:05.264Z,57.70
2018-09-06T03:08:32.852Z,57.80
2018-09-06T03:11:07.379Z,57.10
2018-09-06T03:13:35.033Z,59.50
2018-09-06T03:16:02.731Z,59.50
2018-09-06T03:18:30.353Z,59.00
2018-09-06T03:20:57.991Z,58.40
2018-09-06T03:23:25.799Z,58.10
2018-09-06T03:25:53.414Z,57.80
2018-09-06T03:28:20.977Z,57.50
2018-09-06T03:30:48.540Z,57.80
2018-09-06T03:33:16.040Z,57.90
2018-09-06T03:35:43.656Z,57.60
2018-09-06T03:38:11.209Z,58.30
2018-09-06T03:40:38.726Z,57.60
2018-09-06T03:43:06.328Z,57.30
2018-09-06T03:45:33.880Z,56.90
2018-09-06T03:48:01.444Z,57.20
2018-09-06T03:50:29.069Z,58.30
2018-09-06T03:52:56.664Z,59.50
2018-09-06T03:55:24.310Z,60.90
2018-09-06T03:57:51.953Z,62.00
2018-09-06T04:00:19.592Z,62.90
2018-09-06T04:02:47.349Z,63.60
2018-09-06T04:05:14.959Z,64.20
2018-09-06T04:07:42.444Z,64.10
2018-09-06T04:10:10.015Z,64.50
2018-09-06T04:12:37.512Z,64.30
2018-09-06T04:15:05.401Z,63.70
2018-09-06T04:17:33.152Z,63.90
2018-09-06T04:20:00.730Z,63.80
2018-09-06T04:22:28.245Z,61.70
2018-09-06T04:24:56.131Z,60.50
2018-09-06T04:27:23.740Z,60.50
2018-09-06T04:29:51.299Z,60.40
2018-09-06T04:32:18.807Z,60.90
2018-09-06T04:34:46.615Z,62.90
2018-09-06T04:37:14.174Z,60.50
2018-09-06T04:39:41.687Z,62.60
2018-09-06T04:42:09.299Z,60.40
2018-09-06T04:44:36.852Z,60.60
2018-09-06T04:47:04.472Z,61.30
2018-09-06T04:49:32.011Z,62.00
2018-09-06T04:51:59.660Z,61.90
2018-09-06T04:54:27.279Z,61.70
2018-09-06T04:56:54.993Z,61.30
2018-09-06T04:59:22.737Z,60.20
2018-09-06T05:01:50.430Z,60.10
2018-09-06T05:04:18.065Z,60.50
2018-09-06T05:06:45.583Z,63.10
2018-09-06T05:09:13.212Z,61.00
2018-09-06T05:11:41.118Z,61.00
2018-09-06T05:14:08.704Z,62.80
2018-09-06T05:16:36.567Z,63.80
2018-09-06T05:19:04.241Z,63.30
2018-09-06T05:21:31.772Z,63.60
2018-09-06T05:23:59.313Z,63.40
2018-09-06T05:26:26.959Z,62.50
2018-09-06T05:28:54.541Z,62.60
2018-09-06T05:31:22.108Z,62.90
2018-09-06T05:33:49.824Z,63.00
2018-09-06T05:36:17.502Z,62.80
2018-09-06T05:38:45.104Z,62.60
2018-09-06T05:41:12.748Z,62.30
2018-09-06T05:43:40.319Z,62.30
2018-09-06T05:46:08.659Z,63.00
2018-09-06T05:48:36.229Z,63.30
2018-09-06T05:51:04.250Z,62.70
2018-09-06T05:53:31.862Z,61.20
2018-09-06T05:55:59.470Z,61.50
2018-09-06T05:58:27.066Z,60.30
2018-09-06T06:00:54.628Z,59.70
2018-09-06T06:03:22.192Z,59.40
2018-09-06T06:05:49.851Z,59.20
2018-09-06T06:08:39.119Z,58.70
2018-09-06T06:11:06.692Z,57.70
2018-09-06T06:13:34.338Z,60.30
2018-09-06T06:16:01.926Z,60.20
2018-09-06T06:18:29.480Z,59.50
2018-09-06T06:20:56.993Z,60.20
2018-09-06T06:23:24.576Z,60.00
2018-09-06T06:25:52.167Z,60.70
2018-09-06T06:28:19.680Z,60.50
2018-09-06T06:30:47.241Z,59.60
2018-09-06T06:33:14.771Z,59.30
2018-09-06T06:35:42.315Z,58.70
2018-09-06T06:38:09.966Z,58.20
2018-09-06T06:40:37.573Z,57.80
2018-09-06T06:43:05.131Z,56.40
2018-09-06T06:45:32.713Z,56.80
2018-09-06T06:48:00.395Z,56.80
2018-09-06T06:50:28.150Z,56.40
2018-09-06T06:52:56.690Z,55.80
2018-09-06T06:55:24.264Z,55.80
2018-09-06T06:57:51.995Z,55.50
2018-09-06T07:00:20.949Z,55.40
2018-09-06T07:02:49.172Z,55.00
2018-09-06T07:05:16.744Z,54.70
2018-09-06T07:07:44.524Z,54.70
2018-09-06T07:10:12.099Z,54.40
2018-09-06T07:12:39.577Z,54.00
2018-09-06T07:15:07.677Z,53.90
2018-09-06T07:17:35.243Z,54.90
2018-09-06T07:20:02.827Z,54.80
2018-09-06T07:22:30.491Z,54.90
2018-09-06T07:24:58.216Z,53.80
2018-09-06T07:27:25.715Z,53.10
2018-09-06T07:29:53.264Z,52.70
2018-09-06T07:32:21.304Z,52.60
2018-09-06T07:34:49.448Z,52.10
2018-09-06T07:37:16.979Z,52.20
2018-09-06T07:39:44.608Z,52.60
2018-09-06T07:42:12.160Z,52.40
2018-09-06T07:44:39.743Z,52.60
2018-09-06T07:47:07.332Z,52.30
2018-09-06T07:49:34.979Z,51.40
2018-09-06T07:52:02.548Z,51.10
2018-09-06T07:54:30.196Z,51.40
2018-09-06T07:56:57.758Z,51.20
2018-09-06T07:59:25.642Z,51.90
2018-09-06T08:01:53.300Z,52.00
2018-09-06T08:04:21.131Z,52.20
2018-09-06T08:06:48.651Z,53.20
2018-09-06T08:09:17.063Z,52.90
2018-09-06T08:11:46.399Z,52.90
2018-09-06T08:14:14.026Z,51.70
2018-09-06T08:16:41.639Z,51.20
2018-09-06T08:19:09.266Z,50.70
2018-09-06T08:21:36.884Z,50.90
2018-09-06T08:24:04.403Z,49.90
2018-09-06T08:26:31.899Z,48.60
2018-09-06T08:28:59.468Z,49.90
2018-09-06T08:31:27.064Z,50.70
2018-09-06T08:33:54.625Z,47.90
2018-09-06T08:36:22.412Z,48.20
2018-09-06T08:38:50.036Z,46.40
2018-09-06T08:41:17.700Z,46.70
2018-09-06T08:43:45.270Z,45.70
2018-09-06T08:46:12.861Z,47.20
2018-09-06T08:48:42.180Z,45.20
2018-09-06T08:51:09.744Z,45.70
2018-09-06T08:53:37.479Z,46.10
2018-09-06T08:58:56.884Z,45.50
2018-09-06T09:01:30.092Z,43.60
2018-09-06T09:03:57.662Z,44.40
2018-09-06T09:06:25.373Z,44.40
2018-09-06T09:08:53.000Z,43.00
2018-09-06T09:11:20.586Z,41.10
2018-09-06T09:13:48.215Z,39.70
2018-09-06T09:16:15.890Z,38.40
2018-09-06T09:18:43.331Z,39.70
2018-09-06T09:21:10.869Z,41.10
2018-09-06T09:23:38.521Z,39.20
2018-09-06T09:26:06.108Z,39.70
2018-09-06T09:28:33.727Z,39.10
2018-09-06T09:31:01.260Z,38.20
2018-09-06T09:33:28.927Z,39.90
2018-09-06T09:35:56.539Z,37.90
2018-09-06T09:38:24.061Z,37.40
2018-09-06T09:40:51.621Z,36.90
2018-09-06T09:43:19.406Z,35.90
2018-09-06T09:45:48.296Z,35.20
2018-09-06T09:48:15.939Z,32.70
2018-09-06T09:53:10.624Z,33.90
2018-09-06T09:55:38.290Z,32.80
2018-09-06T09:58:05.893Z,32.40
2018-09-06T10:00:35.178Z,31.90
2018-09-06T10:03:08.332Z,30.90
2018-09-06T10:05:41.634Z,30.60
2018-09-06T10:08:14.829Z,29.60
2018-09-06T10:10:42.681Z,30.90
2018-09-06T10:13:10.960Z,29.90
2018-09-06T10:15:39.032Z,31.30
2018-09-06T10:18:06.837Z,32.00
2018-09-06T10:20:34.382Z,33.40
2018-09-06T10:23:02.011Z,33.50
2018-09-06T10:25:29.564Z,32.10
2018-09-06T10:27:57.192Z,32.60
2018-09-06T10:30:24.971Z,34.30
2018-09-06T10:32:53.378Z,33.40
2018-09-06T10:35:21.342Z,32.10
2018-09-06T10:37:48.992Z,31.00
2018-09-06T10:40:16.535Z,29.50
2018-09-06T10:42:44.092Z,29.60
2018-09-06T10:45:11.775Z,28.20
2018-09-06T10:47:40.915Z,30.20
2018-09-06T10:50:08.647Z,34.50
2018-09-06T10:52:36.416Z,35.30
2018-09-06T10:55:04.051Z,35.20
2018-09-06T10:57:31.660Z,33.90
2018-09-06T10:59:59.647Z,37.00
2018-09-06T11:02:27.426Z,39.00
2018-09-06T11:04:55.079Z,42.50
2018-09-06T11:07:22.713Z,45.30
2018-09-06T11:12:43.212Z,47.10
2018-09-06T11:21:07.114Z,50.10
2018-09-06T11:23:34.773Z,50.40
2018-09-06T11:28:37.882Z,51.20
2018-09-06T11:31:05.338Z,50.60
2018-09-06T11:33:32.789Z,50.70
2018-09-06T11:36:00.411Z,50.50
2018-09-06T11:38:47.225Z,53.40
2018-09-06T11:41:14.711Z,54.90
2018-09-06T11:43:42.234Z,56.80
2018-09-06T11:46:09.662Z,60.00
2018-09-06T11:48:37.117Z,62.40
2018-09-06T11:51:05.087Z,59.30
2018-09-06T11:53:32.625Z,60.30
2018-09-06T11:56:00.063Z,56.10
2018-09-06T11:58:27.518Z,54.30
2018-09-06T12:00:55.045Z,53.30
2018-09-06T12:03:22.465Z,52.60
2018-09-06T12:05:49.973Z,52.30
2018-09-06T12:08:17.418Z,52.70
2018-09-06T12:10:44.874Z,52.80
2018-09-06T12:13:12.402Z,55.20
2018-09-06T12:15:39.874Z,55.00
2018-09-06T12:18:07.370Z,59.20
2018-09-06T12:20:34.798Z,58.50
2018-09-06T12:23:02.972Z,59.30
2018-09-06T12:25:30.503Z,58.60
2018-09-06T12:27:58.067Z,59.60
2018-09-06T12:30:25.654Z,60.10
2018-09-06T12:32:53.140Z,58.40
2018-09-06T12:35:20.647Z,56.60
2018-09-06T12:37:48.118Z,55.00
2018-09-06T12:40:15.666Z,53.30
2018-09-06T12:42:43.186Z,52.30
2018-09-06T12:45:10.646Z,51.90
2018-09-06T12:47:38.233Z,51.70
2018-09-06T12:50:05.693Z,53.50
2018-09-06T12:52:33.235Z,53.20
2018-09-06T12:55:00.725Z,53.90
2018-09-06T12:57:28.152Z,51.00
2018-09-06T12:59:55.670Z,50.40
2018-09-06T13:02:23.208Z,50.30
2018-09-06T13:04:50.733Z,50.00
2018-09-06T13:07:18.137Z,49.70
2018-09-06T13:09:45.577Z,49.20
2018-09-06T13:12:13.066Z,49.10
2018-09-06T13:14:40.544Z,49.10
2018-09-06T13:17:08.029Z,48.70
2018-09-06T13:19:35.504Z,48.10
2018-09-06T13:22:02.957Z,47.00
2018-09-06T13:24:30.452Z,44.60
2018-09-06T13:26:57.865Z,42.50
2018-09-06T13:29:25.311Z,41.30
2018-09-06T13:31:52.725Z,41.40
2018-09-06T13:34:20.153Z,42.90
2018-09-06T13:36:47.604Z,44.70
2018-09-06T13:39:15.085Z,45.70
2018-09-06T13:41:42.567Z,46.40
2018-09-06T13:44:09.986Z,46.60
2018-09-06T13:46:37.417Z,46.80
2018-09-06T13:49:04.825Z,46.70
2018-09-06T13:51:32.282Z,46.20
2018-09-06T13:53:59.689Z,45.20
2018-09-06T13:56:27.148Z,44.20
2018-09-06T13:58:54.651Z,43.80
2018-09-06T14:01:22.069Z,44.10
2018-09-06T14:03:49.483Z,43.90
2018-09-06T14:06:17.041Z,44.30
2018-09-06T14:08:44.474Z,44.40
2018-09-06T14:11:11.913Z,43.50
2018-09-06T14:13:39.303Z,43.00
2018-09-06T14:16:06.837Z,44.40
2018-09-06T14:18:34.338Z,45.10
2018-09-06T14:21:01.838Z,46.40
2018-09-06T14:23:29.321Z,46.80
2018-09-06T14:25:56.766Z,47.80
2018-09-06T14:28:24.209Z,48.20
2018-09-06T14:30:51.613Z,48.60
2018-09-06T14:33:19.055Z,49.00
2018-09-06T14:35:46.511Z,49.20
2018-09-06T14:38:13.967Z,49.60
2018-09-06T14:40:41.373Z,49.70
2018-09-06T14:43:08.804Z,50.10
2018-09-06T14:45:36.242Z,50.40
2018-09-06T14:48:03.842Z,50.90
2018-09-06T14:50:31.240Z,51.40
2018-09-06T14:52:58.802Z,51.60
2018-09-06T14:55:26.286Z,51.70
2018-09-06T14:57:54.613Z,51.40
2018-09-06T15:00:22.080Z,51.90
2018-09-06T15:02:49.522Z,51.60
2018-09-06T15:05:16.952Z,51.90
2018-09-06T15:07:44.415Z,51.90
2018-09-06T15:10:11.821Z,52.20
2018-09-06T15:12:39.290Z,51.90
2018-09-06T15:21:03.033Z,52.70
2018-09-06T15:23:30.486Z,54.70
2018-09-06T15:25:58.025Z,56.10
2018-09-06T15:28:25.497Z,54.00
2018-09-06T15:30:52.958Z,57.60
2018-09-06T15:33:20.390Z,60.00
2018-09-06T15:35:47.862Z,62.30
2018-09-06T15:38:15.327Z,64.60
2018-09-06T15:40:42.818Z,65.80
2018-09-06T15:43:10.276Z,67.30
2018-09-06T15:45:37.827Z,67.20
2018-09-06T15:48:05.384Z,68.00
2018-09-06T15:53:23.602Z,70.70
2018-09-06T15:55:51.199Z,73.40
2018-09-06T15:58:18.649Z,74.50
2018-09-06T16:00:48.955Z,77.00
2018-09-06T16:03:16.412Z,79.90
2018-09-06T16:05:48.965Z,82.50
2018-09-06T16:08:16.398Z,83.80
2018-09-06T16:10:48.786Z,81.40
2018-09-06T16:13:16.484Z,77.20
2018-09-06T16:15:48.876Z,75.50
2018-09-06T16:18:16.393Z,71.00
2018-09-06T16:20:48.892Z,70.60
2018-09-06T16:23:16.350Z,70.50
2018-09-06T16:25:48.821Z,71.80
2018-09-06T16:28:16.304Z,71.90
2018-09-06T16:30:43.893Z,69.30
2018-09-06T16:33:11.313Z,68.40
2018-09-06T16:35:38.934Z,67.10
2018-09-06T16:38:06.540Z,66.80
2018-09-06T16:40:34.018Z,68.20
2018-09-06T16:43:01.514Z,68.20
2018-09-06T16:45:28.983Z,70.30
2018-09-06T16:47:56.446Z,73.00
2018-09-06T16:50:23.895Z,72.80
2018-09-06T16:52:51.402Z,70.90
2018-09-06T16:55:19.432Z,68.00
2018-09-06T16:57:46.938Z,65.90
2018-09-06T17:00:14.407Z,64.70
2018-09-06T17:02:48.450Z,63.40
2018-09-06T17:05:15.909Z,63.60
2018-09-06T17:07:48.302Z,62.20
2018-09-06T17:10:15.763Z,63.30
2018-09-06T17:12:43.277Z,63.50
2018-09-06T17:15:10.781Z,66.80
2018-09-06T17:17:38.245Z,68.80
2018-09-06T17:20:06.094Z,69.10
2018-09-06T17:22:33.542Z,66.90
2018-09-06T17:25:00.993Z,65.10
2018-09-06T17:27:28.445Z,63.70
2018-09-06T17:29:55.877Z,63.80
2018-09-06T17:32:23.315Z,63.10
2018-09-06T17:34:51.674Z,61.30
2018-09-06T17:37:19.163Z,63.40
2018-09-06T17:39:46.630Z,63.20
2018-09-06T17:42:14.081Z,62.50
2018-09-06T17:44:41.645Z,62.10
2018-09-06T17:47:09.101Z,61.50
2018-09-06T17:49:36.594Z,61.40
2018-09-06T17:52:04.110Z,61.10
2018-09-06T17:54:31.632Z,60.50
2018-09-06T17:56:59.074Z,59.80
2018-09-06T17:59:26.565Z,62.70
2018-09-06T18:01:54.134Z,67.50
2018-09-06T18:04:21.701Z,69.40
2018-09-06T18:06:49.190Z,73.90
2018-09-06T18:09:16.732Z,73.50
2018-09-06T18:11:44.308Z,70.00
2018-09-06T18:14:11.973Z,67.00
2018-09-06T18:16:39.810Z,65.50
2018-09-06T18:19:07.330Z,63.10
2018-09-06T18:21:34.940Z,61.80
2018-09-06T18:24:02.454Z,62.50
2018-09-06T18:26:29.974Z,62.80
2018-09-06T18:28:57.692Z,64.40
2018-09-06T18:31:25.244Z,62.70
2018-09-06T18:33:52.729Z,62.60
2018-09-06T18:36:20.357Z,64.80
2018-09-06T18:38:48.944Z,65.80
2018-09-06T18:41:16.541Z,66.50
2018-09-06T18:43:44.068Z,65.40
2018-09-06T18:46:11.598Z,66.40
2018-09-06T18:48:47.558Z,67.90
2018-09-06T18:51:15.131Z,67.00
2018-09-06T18:53:42.739Z,65.20
2018-09-06T18:56:10.298Z,62.60
2018-09-06T18:58:48.266Z,64.20
2018-09-06T19:01:15.760Z,66.50
2018-09-06T19:03:43.191Z,65.30
2018-09-06T19:06:10.704Z,64.20
2018-09-06T19:08:47.675Z,63.30
2018-09-06T19:11:15.162Z,64.50
2018-09-06T19:13:42.602Z,64.70
2018-09-06T19:16:10.105Z,63.50
2018-09-06T19:18:48.220Z,65.30
2018-09-06T19:21:15.768Z,68.40
2018-09-06T19:23:43.234Z,72.90
2018-09-06T19:26:10.747Z,77.10
2018-09-06T19:28:47.866Z,76.10
2018-09-06T19:31:15.437Z,78.60
2018-09-06T19:33:43.006Z,78.10
2018-09-06T19:36:10.507Z,80.90
2018-09-06T19:38:38.018Z,82.60
2018-09-06T19:41:05.670Z,81.60
2018-09-06T19:43:33.150Z,83.50
2018-09-06T19:46:00.643Z,81.40
2018-09-06T19:48:28.158Z,81.60
2018-09-06T19:50:55.772Z,81.70
2018-09-06T19:53:23.255Z,80.20
2018-09-06T19:55:50.710Z,80.00
2018-09-06T19:58:18.192Z,74.60
2018-09-06T20:00:45.674Z,75.50
2018-09-06T20:03:13.130Z,75.60
2018-09-06T20:19:51.993Z,76.40
2018-09-06T20:22:19.493Z,77.30
2018-09-06T20:24:48.915Z,83.20
2018-09-06T20:30:06.734Z,84.60
2018-09-06T20:32:34.226Z,84.00
2018-09-06T20:35:01.714Z,83.10
2018-09-06T20:37:29.177Z,83.70
2018-09-06T20:39:56.785Z,81.90
2018-09-06T20:42:24.293Z,81.70
2018-09-06T20:44:51.750Z,81.90
2018-09-06T20:47:19.270Z,80.40
2018-09-06T20:49:46.712Z,81.60
2018-09-06T20:52:14.199Z,81.80
2018-09-06T20:54:48.284Z,81.80
2018-09-06T20:57:15.773Z,82.80
2018-09-06T20:59:43.353Z,82.60
2018-09-06T21:02:16.348Z,81.70
2018-09-06T21:04:43.876Z,82.10
2018-09-06T21:07:11.434Z,83.40
2018-09-06T21:09:38.888Z,82.80
2018-09-06T21:12:06.607Z,83.00
2018-09-06T21:14:34.111Z,80.80
2018-09-06T21:17:01.592Z,80.70
2018-09-06T21:19:29.046Z,79.30
2018-09-06T21:21:56.936Z,78.70
2018-09-06T21:24:24.435Z,79.90
2018-09-06T21:26:51.917Z,81.90
2018-09-06T21:29:19.370Z,79.00
2018-09-06T21:31:46.847Z,74.10
2018-09-06T21:34:14.314Z,75.10
2018-09-06T21:36:41.769Z,72.10
2018-09-06T21:39:11.151Z,70.30
2018-09-06T21:41:38.977Z,68.60
2018-09-06T21:44:06.675Z,67.10
2018-09-06T21:46:34.270Z,66.90
2018-09-06T21:49:01.709Z,67.10
2018-09-06T21:51:29.152Z,68.80
2018-09-06T21:53:56.634Z,66.20
2018-09-06T21:56:24.083Z,67.40
2018-09-06T21:58:51.586Z,66.80
2018-09-06T22:01:19.002Z,63.10
2018-09-06T22:03:52.050Z,65.60
2018-09-06T22:06:19.527Z,65.20
2018-09-06T22:08:47.181Z,64.80
2018-09-06T22:11:14.646Z,64.30
2018-09-06T22:13:42.117Z,63.70
2018-09-06T22:16:09.676Z,63.50
2018-09-06T22:18:37.395Z,63.10
2018-09-06T22:21:05.250Z,62.90
2018-09-06T22:23:32.703Z,62.80
2018-09-06T22:26:00.189Z,62.50
2018-09-06T22:28:27.683Z,62.30
2018-09-06T22:30:55.167Z,61.00
2018-09-06T22:33:22.654Z,61.90
2018-09-06T22:35:50.157Z,60.50
2018-09-06T22:38:17.590Z,62.40
2018-09-06T22:40:45.097Z,62.20
2018-09-06T22:43:12.667Z,61.60
2018-09-06T22:45:40.253Z,64.00
2018-09-06T22:48:07.728Z,64.50
2018-09-06T22:50:35.354Z,67.80
2018-09-06T22:53:02.822Z,67.30
2018-09-06T22:55:30.348Z,65.70
2018-09-06T22:57:57.799Z,65.50
2018-09-06T23:00:29.057Z,64.60
2018-09-06T23:04:03.391Z,64.70
2018-09-06T23:06:31.089Z,63.40
2018-09-06T23:08:58.568Z,63.00
2018-09-06T23:11:26.071Z,61.90
2018-09-06T23:13:53.542Z,62.60
2018-09-06T23:16:21.110Z,63.50
2018-09-06T23:18:48.645Z,62.60
2018-09-06T23:21:16.152Z,63.30
2018-09-06T23:23:43.641Z,64.20
2018-09-06T23:26:11.184Z,63.90
2018-09-06T23:28:38.837Z,63.30
2018-09-06T23:31:06.490Z,62.80
2018-09-06T23:33:34.134Z,62.40
2018-09-06T23:36:01.705Z,62.20
2018-09-06T23:38:29.165Z,61.20
2018-09-06T23:40:57.068Z,62.30
2018-09-06T23:43:25.724Z,62.10
2018-09-06T23:45:56.342Z,62.00
2018-09-06T23:48:25.908Z,59.10
2018-09-06T23:50:54.175Z,63.40
2018-09-06T23:53:21.741Z,63.40
2018-09-06T23:55:49.235Z,62.30
2018-09-06T23:58:16.805Z,62.00
